createdAt,value
2019-03-04T00:00:20.392Z,0.00
2019-03-04T00:01:20.465Z,0.00
2019-03-04T00:02:20.415Z,0.00
2019-03-04T00:03:20.396Z,0.00
2019-03-04T00:04:20.360Z,0.00
2019-03-04T00:05:20.369Z,0.00
2019-03-04T00:06:20.323Z,0.00
2019-03-04T00:07:20.313Z,0.00
2019-03-04T00:08:20.338Z,0.00
2019-03-04T00:09:20.374Z,0.00
2019-03-04T00:10:20.296Z,0.00
2019-03-04T00:11:20.290Z,0.00
2019-03-04T00:12:20.262Z,0.00
2019-03-04T00:13:20.303Z,0.00
2019-03-04T00:14:20.242Z,0.00
2019-03-04T00:15:20.566Z,0.00
2019-03-04T00:16:20.217Z,0.00
2019-03-04T00:17:20.228Z,0.00
2019-03-04T00:18:20.194Z,0.00
2019-03-04T00:19:20.184Z,0.00
2019-03-04T00:20:20.176Z,0.00
2019-03-04T00:21:20.844Z,0.00
2019-03-04T00:22:20.161Z,0.00
2019-03-04T00:23:20.143Z,0.00
2019-03-04T00:24:20.290Z,0.00
2019-03-04T00:25:20.121Z,0.00
2019-03-04T00:26:20.110Z,0.00
2019-03-04T00:27:20.126Z,0.00
2019-03-04T00:28:20.173Z,0.00
2019-03-04T00:29:20.137Z,0.00
2019-03-04T00:30:20.074Z,0.00
2019-03-04T00:31:20.068Z,0.00
2019-03-04T00:32:20.051Z,0.00
2019-03-04T00:33:20.067Z,0.00
2019-03-04T00:34:20.028Z,0.00
2019-03-04T00:35:20.017Z,0.00
2019-03-04T00:36:20.047Z,0.00
2019-03-04T00:37:19.992Z,0.00
2019-03-04T00:38:19.978Z,0.00
2019-03-04T00:39:19.991Z,0.00
2019-03-04T00:40:19.961Z,0.00
2019-03-04T00:41:20.039Z,0.00
2019-03-04T00:42:19.942Z,0.00
2019-03-04T00:43:19.949Z,0.00
2019-03-04T00:44:19.917Z,0.00
2019-03-04T00:45:19.903Z,0.00
2019-03-04T00:46:19.969Z,0.00
2019-03-04T00:47:19.893Z,0.00
2019-03-04T00:48:19.895Z,0.00
2019-03-04T00:49:19.867Z,0.00
2019-03-04T00:50:19.850Z,0.00
2019-03-04T00:51:19.920Z,0.00
2019-03-04T00:52:19.848Z,0.00
2019-03-04T00:53:19.842Z,0.00
2019-03-04T00:54:19.814Z,0.00
2019-03-04T00:55:19.829Z,0.00
2019-03-04T00:56:19.787Z,0.00
2019-03-04T00:57:19.776Z,0.00
2019-03-04T00:58:19.762Z,0.00
2019-03-04T00:59:19.857Z,0.00
2019-03-04T01:00:19.748Z,0.00
2019-03-04T01:01:19.915Z,0.00
2019-03-04T01:02:19.722Z,0.00
2019-03-04T01:03:19.730Z,0.00
2019-03-04T01:04:19.715Z,0.00
2019-03-04T01:05:19.782Z,0.00
2019-03-04T01:06:19.683Z,0.00
2019-03-04T01:07:19.671Z,0.00
2019-03-04T01:08:19.687Z,0.00
2019-03-04T01:09:19.644Z,0.00
2019-03-04T01:10:19.634Z,0.00
2019-03-04T01:11:19.625Z,0.00
2019-03-04T01:12:19.616Z,0.00
2019-03-04T01:13:19.626Z,0.00
2019-03-04T01:14:19.614Z,0.00
2019-03-04T01:15:19.583Z,0.00
2019-03-04T01:16:19.571Z,0.00
2019-03-04T01:17:19.558Z,0.00
2019-03-04T01:18:19.553Z,0.00
2019-03-04T01:19:19.558Z,0.00
2019-03-04T01:20:19.529Z,0.00
2019-03-04T01:21:19.514Z,0.00
2019-03-04T01:22:19.503Z,0.00
2019-03-04T01:23:19.495Z,0.00
2019-03-04T01:24:19.503Z,0.00
2019-03-04T01:25:19.477Z,0.00
2019-03-04T01:26:19.466Z,0.00
2019-03-04T01:27:19.455Z,0.00
2019-03-04T01:28:19.443Z,0.00
2019-03-04T01:29:19.446Z,0.00
2019-03-04T01:30:19.416Z,0.00
2019-03-04T01:31:19.407Z,0.00
2019-03-04T01:32:19.399Z,0.00
2019-03-04T01:33:19.395Z,0.00
2019-03-04T01:34:19.396Z,0.00
2019-03-04T01:35:19.367Z,0.00
2019-03-04T01:36:19.356Z,0.00
2019-03-04T01:37:19.363Z,0.00
2019-03-04T01:38:19.362Z,0.00
2019-03-04T01:39:19.323Z,0.00
2019-03-04T01:40:19.312Z,0.00
2019-03-04T01:41:19.323Z,0.00
2019-03-04T01:42:19.287Z,0.00
2019-03-04T01:43:19.280Z,0.00
2019-03-04T01:44:19.286Z,0.00
2019-03-04T01:45:19.309Z,0.00
2019-03-04T01:46:19.252Z,0.00
2019-03-04T01:47:19.237Z,0.00
2019-03-04T01:48:19.224Z,0.00
2019-03-04T01:49:19.228Z,0.00
2019-03-04T01:50:19.207Z,0.00
2019-03-04T01:51:19.213Z,0.00
2019-03-04T01:52:19.183Z,0.00
2019-03-04T01:53:19.169Z,0.00
2019-03-04T01:54:19.175Z,0.00
2019-03-04T01:55:19.197Z,0.00
2019-03-04T01:56:19.141Z,0.00
2019-03-04T01:57:19.151Z,0.00
2019-03-04T01:58:19.129Z,0.00
2019-03-04T01:59:19.126Z,0.00
2019-03-04T02:00:19.095Z,0.00
2019-03-04T02:01:19.083Z,0.00
2019-03-04T02:02:19.071Z,0.00
2019-03-04T02:03:19.063Z,0.00
2019-03-04T02:04:19.079Z,0.00
2019-03-04T02:05:19.048Z,0.00
2019-03-04T02:06:19.035Z,0.00
2019-03-04T02:07:19.019Z,0.00
2019-03-04T02:08:19.018Z,0.00
2019-03-04T02:09:19.006Z,0.00
2019-03-04T02:10:19.013Z,0.00
2019-03-04T02:11:18.985Z,0.00
2019-03-04T02:12:18.998Z,0.00
2019-03-04T02:13:18.952Z,0.00
2019-03-04T02:14:18.975Z,0.00
2019-03-04T02:15:19.119Z,0.00
2019-03-04T02:16:18.926Z,0.00
2019-03-04T02:17:18.916Z,0.00
2019-03-04T02:18:18.984Z,0.00
2019-03-04T02:19:18.895Z,0.00
2019-03-04T02:20:18.880Z,0.00
2019-03-04T02:21:18.883Z,0.00
2019-03-04T02:22:18.864Z,0.00
2019-03-04T02:23:18.868Z,0.00
2019-03-04T02:24:18.838Z,0.00
2019-03-04T02:25:18.824Z,0.00
2019-03-04T02:26:18.813Z,0.00
2019-03-04T02:27:18.828Z,0.00
2019-03-04T02:28:18.798Z,0.00
2019-03-04T02:29:18.788Z,0.00
2019-03-04T02:30:18.778Z,0.00
2019-03-04T02:31:18.783Z,0.00
2019-03-04T02:32:18.759Z,0.00
2019-03-04T02:33:18.768Z,0.00
2019-03-04T02:34:18.741Z,0.00
2019-03-04T02:35:18.768Z,0.00
2019-03-04T02:36:18.849Z,0.00
2019-03-04T02:37:18.703Z,0.00
2019-03-04T02:38:18.687Z,0.00
2019-03-04T02:39:18.708Z,0.00
2019-03-04T02:40:18.669Z,0.00
2019-03-04T02:41:27.981Z,0.00
2019-03-04T02:42:18.648Z,0.00
2019-03-04T02:43:18.657Z,0.00
2019-03-04T02:44:18.641Z,0.00
2019-03-04T02:45:18.613Z,0.00
2019-03-04T02:46:18.604Z,0.00
2019-03-04T02:47:18.613Z,0.00
2019-03-04T02:48:18.591Z,0.00
2019-03-04T02:49:18.638Z,0.00
2019-03-04T02:50:18.570Z,0.00
2019-03-04T02:51:18.554Z,0.00
2019-03-04T02:52:18.569Z,0.00
2019-03-04T02:53:18.543Z,0.00
2019-03-04T02:54:18.524Z,0.00
2019-03-04T02:55:18.601Z,0.00
2019-03-04T02:56:18.507Z,0.00
2019-03-04T02:57:18.484Z,0.00
2019-03-04T02:58:18.490Z,0.00
2019-03-04T02:59:18.461Z,0.00
2019-03-04T03:00:18.480Z,0.00
2019-03-04T03:01:18.459Z,0.00
2019-03-04T03:02:18.431Z,0.00
2019-03-04T03:03:18.440Z,0.00
2019-03-04T03:04:18.454Z,0.00
2019-03-04T03:05:18.424Z,0.00
2019-03-04T03:06:18.402Z,0.00
2019-03-04T03:07:18.372Z,0.00
2019-03-04T03:08:18.628Z,0.00
2019-03-04T03:09:18.377Z,0.00
2019-03-04T03:10:18.343Z,0.00
2019-03-04T03:11:18.373Z,0.00
2019-03-04T03:12:18.496Z,0.00
2019-03-04T03:13:18.329Z,0.00
2019-03-04T03:14:18.307Z,0.00
2019-03-04T03:15:18.295Z,0.00
2019-03-04T03:16:18.297Z,0.00
2019-03-04T03:17:18.269Z,0.00
2019-03-04T03:18:18.258Z,0.00
2019-03-04T03:19:18.250Z,0.00
2019-03-04T03:20:18.242Z,0.00
2019-03-04T03:21:18.244Z,0.00
2019-03-04T03:22:18.239Z,0.00
2019-03-04T03:23:18.210Z,0.00
2019-03-04T03:24:18.192Z,0.00
2019-03-04T03:25:18.183Z,0.00
2019-03-04T03:26:18.192Z,0.00
2019-03-04T03:27:18.168Z,0.00
2019-03-04T03:28:18.177Z,0.00
2019-03-04T03:29:18.228Z,0.00
2019-03-04T03:30:18.157Z,0.00
2019-03-04T03:31:18.133Z,0.00
2019-03-04T03:32:18.113Z,0.00
2019-03-04T03:33:18.354Z,0.00
2019-03-04T03:34:18.101Z,0.00
2019-03-04T03:35:18.087Z,0.00
2019-03-04T03:36:18.120Z,0.00
2019-03-04T03:37:18.055Z,0.00
2019-03-04T03:38:18.141Z,0.00
2019-03-04T03:39:18.222Z,0.00
2019-03-04T03:40:18.026Z,0.00
2019-03-04T03:41:18.013Z,0.00
2019-03-04T03:42:19.146Z,0.00
2019-03-04T03:43:17.989Z,0.00
2019-03-04T03:44:18.035Z,0.00
2019-03-04T03:45:18.038Z,0.00
2019-03-04T03:46:17.963Z,0.00
2019-03-04T03:47:17.957Z,0.00
2019-03-04T03:48:18.002Z,0.00
2019-03-04T03:49:17.922Z,0.00
2019-03-04T03:50:17.913Z,0.00
2019-03-04T03:51:17.901Z,0.00
2019-03-04T03:52:17.896Z,0.00
2019-03-04T03:53:17.881Z,0.00
2019-03-04T03:54:17.890Z,0.00
2019-03-04T03:55:17.880Z,0.00
2019-03-04T03:56:17.943Z,0.00
2019-03-04T03:57:17.855Z,0.00
2019-03-04T03:58:17.829Z,0.00
2019-03-04T03:59:17.841Z,0.00
2019-03-04T04:00:17.806Z,0.00
2019-03-04T04:01:17.793Z,0.00
2019-03-04T04:02:17.802Z,0.00
2019-03-04T04:03:17.769Z,0.00
2019-03-04T04:04:17.788Z,0.00
2019-03-04T04:05:17.762Z,0.00
2019-03-04T04:06:17.742Z,0.00
2019-03-04T04:07:17.753Z,0.00
2019-03-04T04:08:17.738Z,0.00
2019-03-04T04:09:17.741Z,0.00
2019-03-04T04:10:17.697Z,0.00
2019-03-04T04:11:17.683Z,0.00
2019-03-04T04:12:17.698Z,0.00
2019-03-04T04:13:17.669Z,0.00
2019-03-04T04:14:17.654Z,0.00
2019-03-04T04:15:17.641Z,0.00
2019-03-04T04:16:17.666Z,0.00
2019-03-04T04:17:17.630Z,0.00
2019-03-04T04:18:17.613Z,0.00
2019-03-04T04:19:17.725Z,0.00
2019-03-04T04:20:17.704Z,0.00
2019-03-04T04:21:17.646Z,0.00
2019-03-04T04:22:17.599Z,0.00
2019-03-04T04:23:17.554Z,0.00
2019-03-04T04:24:17.552Z,0.00
2019-03-04T04:25:17.545Z,0.00
2019-03-04T04:26:17.533Z,0.00
2019-03-04T04:27:17.520Z,0.00
2019-03-04T04:28:17.578Z,0.00
2019-03-04T04:29:17.492Z,0.00
2019-03-04T04:30:17.493Z,0.00
2019-03-04T04:31:17.488Z,0.00
2019-03-04T04:32:17.459Z,0.00
2019-03-04T04:33:17.448Z,0.00
2019-03-04T04:34:17.456Z,0.00
2019-03-04T04:35:17.516Z,0.00
2019-03-04T04:36:17.453Z,0.00
2019-03-04T04:37:17.412Z,0.00
2019-03-04T04:38:17.521Z,0.00
2019-03-04T04:39:17.396Z,0.00
2019-03-04T04:40:17.376Z,0.00
2019-03-04T04:41:17.362Z,0.00
2019-03-04T04:42:17.350Z,0.00
2019-03-04T04:43:17.361Z,0.00
2019-03-04T04:44:17.347Z,0.00
2019-03-04T04:45:17.436Z,0.00
2019-03-04T04:46:17.311Z,0.00
2019-03-04T04:47:17.299Z,0.00
2019-03-04T04:48:17.318Z,0.00
2019-03-04T04:49:17.307Z,0.00
2019-03-04T04:50:17.272Z,0.00
2019-03-04T04:51:17.275Z,0.00
2019-03-04T04:52:17.379Z,0.00
2019-03-04T04:53:17.348Z,0.00
2019-03-04T04:54:17.221Z,0.00
2019-03-04T04:55:17.230Z,0.00
2019-03-04T04:56:17.208Z,0.00
2019-03-04T04:57:17.195Z,0.00
2019-03-04T04:58:17.210Z,0.00
2019-03-04T04:59:17.172Z,0.00
2019-03-04T05:00:17.162Z,0.00
2019-03-04T05:01:17.211Z,0.00
2019-03-04T05:02:17.197Z,0.00
2019-03-04T05:03:17.149Z,0.00
2019-03-04T05:04:17.116Z,0.00
2019-03-04T05:05:17.274Z,0.00
2019-03-04T05:06:17.175Z,0.00
2019-03-04T05:07:17.093Z,0.00
2019-03-04T05:08:17.078Z,0.00
2019-03-04T05:09:17.069Z,0.00
2019-03-04T05:10:17.348Z,0.00
2019-03-04T05:11:17.075Z,0.00
2019-03-04T05:12:17.047Z,0.00
2019-03-04T05:13:17.016Z,0.00
2019-03-04T05:14:17.007Z,0.00
2019-03-04T05:15:17.012Z,0.00
2019-03-04T05:16:17.529Z,0.00
2019-03-04T05:17:16.983Z,0.00
2019-03-04T05:18:17.029Z,0.00
2019-03-04T05:19:16.973Z,0.00
2019-03-04T05:20:16.949Z,0.00
2019-03-04T05:21:16.937Z,0.00
2019-03-04T05:22:16.965Z,0.00
2019-03-04T05:23:17.030Z,0.00
2019-03-04T05:24:16.934Z,0.00
2019-03-04T05:25:16.888Z,0.00
2019-03-04T05:26:16.894Z,0.00
2019-03-04T05:27:16.891Z,0.00
2019-03-04T05:28:16.860Z,0.00
2019-03-04T05:29:16.869Z,0.00
2019-03-04T05:30:16.926Z,0.00
2019-03-04T05:31:16.854Z,0.00
2019-03-04T05:32:16.820Z,0.00
2019-03-04T05:33:16.801Z,0.00
2019-03-04T05:34:16.798Z,0.00
2019-03-04T05:35:16.786Z,0.00
2019-03-04T05:36:16.817Z,0.00
2019-03-04T05:37:16.777Z,0.00
2019-03-04T05:38:16.753Z,0.00
2019-03-04T05:39:16.756Z,0.00
2019-03-04T05:40:16.855Z,0.00
2019-03-04T05:41:16.723Z,0.00
2019-03-04T05:42:16.786Z,0.00
2019-03-04T05:43:16.710Z,0.00
2019-03-04T05:44:16.688Z,0.00
2019-03-04T05:45:16.673Z,0.00
2019-03-04T05:46:16.662Z,0.00
2019-03-04T05:47:16.654Z,0.00
2019-03-04T05:48:16.678Z,0.00
2019-03-04T05:49:16.723Z,0.00
2019-03-04T05:50:17.119Z,0.00
2019-03-04T05:51:16.610Z,0.00
2019-03-04T05:52:16.608Z,0.00
2019-03-04T05:53:16.611Z,0.00
2019-03-04T05:54:16.600Z,0.00
2019-03-04T05:55:16.570Z,0.00
2019-03-04T05:56:16.560Z,0.00
2019-03-04T05:57:16.557Z,0.00
2019-03-04T05:58:16.532Z,0.00
2019-03-04T05:59:19.706Z,0.00
2019-03-04T06:00:16.523Z,0.00
2019-03-04T06:01:16.507Z,0.00
2019-03-04T06:02:16.497Z,0.00
2019-03-04T06:03:16.484Z,0.00
2019-03-04T06:04:16.475Z,0.00
2019-03-04T06:05:16.482Z,0.00
2019-03-04T06:06:16.452Z,0.00
2019-03-04T06:07:16.440Z,0.00
2019-03-04T06:08:16.429Z,0.00
2019-03-04T06:09:16.417Z,0.00
2019-03-04T06:10:16.408Z,0.00
2019-03-04T06:11:16.415Z,0.00
2019-03-04T06:12:16.401Z,0.00
2019-03-04T06:13:16.384Z,0.00
2019-03-04T06:14:16.368Z,0.00
2019-03-04T06:15:16.373Z,0.00
2019-03-04T06:16:16.341Z,0.00
2019-03-04T06:17:16.329Z,0.00
2019-03-04T06:18:16.318Z,0.00
2019-03-04T06:19:16.308Z,0.00
2019-03-04T06:20:16.318Z,5.62
2019-03-04T06:21:16.298Z,5.62
2019-03-04T06:22:16.272Z,5.62
2019-03-04T06:23:16.274Z,11.25
2019-03-04T06:24:16.256Z,16.88
2019-03-04T06:25:16.268Z,16.88
2019-03-04T06:26:16.256Z,11.25
2019-03-04T06:27:16.233Z,16.88
2019-03-04T06:28:16.211Z,22.50
2019-03-04T06:29:16.197Z,16.88
2019-03-04T06:30:16.210Z,11.25
2019-03-04T06:31:16.180Z,5.62
2019-03-04T06:32:16.175Z,11.25
2019-03-04T06:33:16.163Z,5.62
2019-03-04T06:34:16.153Z,5.62
2019-03-04T06:35:16.172Z,0.00
2019-03-04T06:36:16.133Z,5.62
2019-03-04T06:37:16.112Z,16.88
2019-03-04T06:38:16.135Z,22.50
2019-03-04T06:39:16.126Z,28.12
2019-03-04T06:40:16.095Z,28.12
2019-03-04T06:41:16.088Z,28.12
2019-03-04T06:42:16.068Z,28.12
2019-03-04T06:43:16.074Z,22.50
2019-03-04T06:44:16.046Z,22.50
2019-03-04T06:45:16.038Z,22.50
2019-03-04T06:46:16.036Z,22.50
2019-03-04T06:47:16.013Z,16.88
2019-03-04T06:48:16.014Z,16.88
2019-03-04T06:49:15.983Z,16.88
2019-03-04T06:50:15.974Z,16.88
2019-03-04T06:51:15.984Z,22.50
2019-03-04T06:52:15.960Z,22.50
2019-03-04T06:53:15.963Z,33.75
2019-03-04T06:54:15.932Z,45.00
2019-03-04T06:55:15.949Z,45.00
2019-03-04T06:56:16.000Z,56.25
2019-03-04T06:57:15.928Z,45.00
2019-03-04T06:58:15.911Z,45.00
2019-03-04T06:59:15.928Z,45.00
2019-03-04T07:00:15.906Z,39.38
2019-03-04T07:01:15.881Z,39.38
2019-03-04T07:02:15.844Z,39.38
2019-03-04T07:03:15.857Z,39.38
2019-03-04T07:04:15.834Z,45.00
2019-03-04T07:05:15.821Z,39.38
2019-03-04T07:06:15.810Z,39.38
2019-03-04T07:07:15.816Z,33.75
2019-03-04T07:08:15.781Z,28.12
2019-03-04T07:09:15.769Z,28.12
2019-03-04T07:10:15.767Z,28.12
2019-03-04T07:11:15.755Z,28.12
2019-03-04T07:12:15.772Z,39.38
2019-03-04T07:13:15.759Z,39.38
2019-03-04T07:14:15.716Z,39.38
2019-03-04T07:15:15.709Z,39.38
2019-03-04T07:16:15.698Z,45.00
2019-03-04T07:17:15.689Z,50.62
2019-03-04T07:18:15.687Z,61.88
2019-03-04T07:19:15.689Z,61.88
2019-03-04T07:20:15.663Z,73.12
2019-03-04T07:21:15.680Z,84.38
2019-03-04T07:22:15.639Z,95.62
2019-03-04T07:23:15.641Z,95.62
2019-03-04T07:24:15.630Z,95.62
2019-03-04T07:25:15.602Z,95.62
2019-03-04T07:26:15.589Z,101.25
2019-03-04T07:27:15.576Z,101.25
2019-03-04T07:28:15.587Z,106.88
2019-03-04T07:29:15.584Z,118.12
2019-03-04T07:30:15.554Z,123.75
2019-03-04T07:31:15.536Z,123.75
2019-03-04T07:32:15.524Z,129.38
2019-03-04T07:33:15.509Z,140.62
2019-03-04T07:34:15.506Z,168.75
2019-03-04T07:35:15.511Z,202.50
2019-03-04T07:36:15.494Z,174.38
2019-03-04T07:37:15.480Z,112.50
2019-03-04T07:38:15.464Z,90.00
2019-03-04T07:39:15.453Z,73.12
2019-03-04T07:40:16.419Z,84.38
2019-03-04T07:41:15.423Z,95.62
2019-03-04T07:42:15.454Z,112.50
2019-03-04T07:43:15.587Z,140.62
2019-03-04T07:44:15.402Z,157.50
2019-03-04T07:45:15.455Z,163.12
2019-03-04T07:46:15.382Z,157.50
2019-03-04T07:47:15.362Z,180.00
2019-03-04T07:48:15.355Z,185.62
2019-03-04T07:49:15.353Z,168.75
2019-03-04T07:50:15.361Z,140.62
2019-03-04T07:51:15.339Z,129.38
2019-03-04T07:52:15.319Z,146.25
2019-03-04T07:53:15.301Z,180.00
2019-03-04T07:54:15.284Z,225.00
2019-03-04T07:55:15.299Z,270.00
2019-03-04T07:56:15.274Z,286.88
2019-03-04T07:57:15.259Z,247.50
2019-03-04T07:58:15.241Z,270.00
2019-03-04T07:59:15.250Z,241.88
2019-03-04T08:00:15.225Z,241.88
2019-03-04T08:01:15.218Z,292.50
2019-03-04T08:02:15.237Z,360.00
2019-03-04T08:03:15.259Z,388.12
2019-03-04T08:04:15.179Z,410.62
2019-03-04T08:05:15.168Z,416.25
2019-03-04T08:06:15.158Z,416.25
2019-03-04T08:07:15.167Z,416.25
2019-03-04T08:08:15.145Z,393.75
2019-03-04T08:09:15.137Z,371.25
2019-03-04T08:10:15.156Z,343.12
2019-03-04T08:11:15.108Z,326.25
2019-03-04T08:12:15.097Z,337.50
2019-03-04T08:13:15.097Z,348.75
2019-03-04T08:14:15.076Z,360.00
2019-03-04T08:15:15.080Z,376.88
2019-03-04T08:16:15.071Z,371.25
2019-03-04T08:17:15.037Z,337.50
2019-03-04T08:18:15.048Z,286.88
2019-03-04T08:19:15.017Z,264.38
2019-03-04T08:20:15.009Z,270.00
2019-03-04T08:21:15.027Z,320.62
2019-03-04T08:22:14.996Z,365.62
2019-03-04T08:23:15.003Z,382.50
2019-03-04T08:24:14.983Z,388.12
2019-03-04T08:25:15.021Z,382.50
2019-03-04T08:26:14.971Z,320.62
2019-03-04T08:27:14.931Z,286.88
2019-03-04T08:28:14.922Z,253.12
2019-03-04T08:29:14.914Z,202.50
2019-03-04T08:30:14.898Z,208.12
2019-03-04T08:31:14.914Z,236.25
2019-03-04T08:32:14.880Z,286.88
2019-03-04T08:33:14.873Z,292.50
2019-03-04T08:34:14.864Z,286.88
2019-03-04T08:35:14.846Z,315.00
2019-03-04T08:36:14.858Z,371.25
2019-03-04T08:37:14.842Z,382.50
2019-03-04T08:38:14.825Z,388.12
2019-03-04T08:39:14.802Z,343.12
2019-03-04T08:40:14.793Z,286.88
2019-03-04T08:41:14.802Z,343.12
2019-03-04T08:42:14.795Z,354.38
2019-03-04T08:43:14.766Z,298.12
2019-03-04T08:44:14.754Z,309.38
2019-03-04T08:45:14.767Z,286.88
2019-03-04T08:46:14.732Z,292.50
2019-03-04T08:47:14.753Z,298.12
2019-03-04T08:48:14.705Z,315.00
2019-03-04T08:49:14.700Z,326.25
2019-03-04T08:50:14.681Z,253.12
2019-03-04T08:51:14.688Z,241.88
2019-03-04T08:52:14.662Z,247.50
2019-03-04T08:53:14.659Z,388.12
2019-03-04T08:54:14.636Z,455.62
2019-03-04T08:55:14.628Z,354.38
2019-03-04T08:56:14.639Z,382.50
2019-03-04T08:57:14.627Z,371.25
2019-03-04T08:58:14.620Z,376.88
2019-03-04T08:59:14.588Z,399.38
2019-03-04T09:00:14.573Z,410.62
2019-03-04T09:01:14.562Z,399.38
2019-03-04T09:02:14.581Z,405.00
2019-03-04T09:03:14.546Z,483.75
2019-03-04T09:04:14.542Z,517.50
2019-03-04T09:05:14.528Z,444.38
2019-03-04T09:06:14.538Z,410.62
2019-03-04T09:07:14.538Z,489.38
2019-03-04T09:08:14.609Z,472.50
2019-03-04T09:09:14.482Z,354.38
2019-03-04T09:10:15.048Z,360.00
2019-03-04T09:11:14.493Z,365.62
2019-03-04T09:12:14.485Z,264.38
2019-03-04T09:13:14.493Z,258.75
2019-03-04T09:14:14.443Z,270.00
2019-03-04T09:15:14.430Z,376.88
2019-03-04T09:16:14.419Z,489.38
2019-03-04T09:17:14.435Z,511.88
2019-03-04T09:18:14.387Z,438.75
2019-03-04T09:19:14.400Z,450.00
2019-03-04T09:20:14.380Z,450.00
2019-03-04T09:21:14.359Z,489.38
2019-03-04T09:22:14.360Z,528.75
2019-03-04T09:23:14.330Z,540.00
2019-03-04T09:24:14.366Z,607.50
2019-03-04T09:25:14.318Z,601.88
2019-03-04T09:26:14.332Z,495.00
2019-03-04T09:27:14.353Z,523.12
2019-03-04T09:28:14.279Z,500.62
2019-03-04T09:29:14.272Z,405.00
2019-03-04T09:30:14.270Z,489.38
2019-03-04T09:31:14.245Z,500.62
2019-03-04T09:32:14.230Z,483.75
2019-03-04T09:33:14.216Z,523.12
2019-03-04T09:34:14.212Z,495.00
2019-03-04T09:35:14.222Z,444.38
2019-03-04T09:36:14.190Z,551.25
2019-03-04T09:37:14.174Z,601.88
2019-03-04T09:38:14.161Z,540.00
2019-03-04T09:39:14.151Z,556.88
2019-03-04T09:40:14.147Z,579.38
2019-03-04T09:41:14.159Z,517.50
2019-03-04T09:42:14.124Z,416.25
2019-03-04T09:43:14.111Z,331.88
2019-03-04T09:44:14.101Z,399.38
2019-03-04T09:45:14.095Z,399.38
2019-03-04T09:46:14.074Z,405.00
2019-03-04T09:47:14.120Z,270.00
2019-03-04T09:48:14.085Z,348.75
2019-03-04T09:49:14.048Z,331.88
2019-03-04T09:50:14.034Z,410.62
2019-03-04T09:51:23.855Z,388.12
2019-03-04T09:52:15.011Z,371.25
2019-03-04T09:53:14.033Z,472.50
2019-03-04T09:54:13.993Z,450.00
2019-03-04T09:55:13.980Z,427.50
2019-03-04T09:56:13.970Z,433.12
2019-03-04T09:57:13.954Z,416.25
2019-03-04T09:58:13.943Z,343.12
2019-03-04T09:59:13.953Z,309.38
2019-03-04T10:00:13.934Z,331.88
2019-03-04T10:01:13.919Z,348.75
2019-03-04T10:02:13.913Z,331.88
2019-03-04T10:03:13.900Z,337.50
2019-03-04T10:04:13.909Z,371.25
2019-03-04T10:05:13.870Z,376.88
2019-03-04T10:06:13.864Z,320.62
2019-03-04T10:07:13.852Z,258.75
2019-03-04T10:08:13.846Z,225.00
2019-03-04T10:09:13.869Z,208.12
2019-03-04T10:10:15.925Z,253.12
2019-03-04T10:11:13.810Z,348.75
2019-03-04T10:12:13.812Z,360.00
2019-03-04T10:13:13.817Z,495.00
2019-03-04T10:14:13.778Z,489.38
2019-03-04T10:15:13.768Z,534.38
2019-03-04T10:16:18.733Z,450.00
2019-03-04T10:17:14.736Z,433.12
2019-03-04T10:18:13.731Z,410.62
2019-03-04T10:19:13.740Z,343.12
2019-03-04T10:20:13.714Z,315.00
2019-03-04T10:21:13.725Z,286.88
2019-03-04T10:22:13.704Z,292.50
2019-03-04T10:23:13.685Z,258.75
2019-03-04T10:24:13.668Z,225.00
2019-03-04T10:25:13.658Z,202.50
2019-03-04T10:26:22.147Z,241.88
2019-03-04T10:27:14.655Z,247.50
2019-03-04T10:28:13.622Z,225.00
2019-03-04T10:29:13.638Z,219.38
2019-03-04T10:30:13.620Z,230.62
2019-03-04T10:31:13.617Z,281.25
2019-03-04T10:32:13.587Z,275.62
2019-03-04T10:33:13.573Z,241.88
2019-03-04T10:34:13.589Z,241.88
2019-03-04T10:35:13.550Z,230.62
2019-03-04T10:36:13.536Z,219.38
2019-03-04T10:37:13.525Z,225.00
2019-03-04T10:38:22.337Z,208.12
2019-03-04T10:39:14.532Z,191.25
2019-03-04T10:40:15.541Z,196.88
2019-03-04T10:41:13.499Z,168.75
2019-03-04T10:42:13.485Z,168.75
2019-03-04T10:43:13.463Z,174.38
2019-03-04T10:44:13.478Z,163.12
2019-03-04T10:45:13.448Z,196.88
2019-03-04T10:46:13.456Z,180.00
2019-03-04T10:47:13.420Z,157.50
2019-03-04T10:48:13.420Z,168.75
2019-03-04T10:49:13.411Z,185.62
2019-03-04T10:50:13.465Z,163.12
2019-03-04T10:51:13.407Z,196.88
2019-03-04T10:52:13.365Z,191.25
2019-03-04T10:53:13.357Z,236.25
2019-03-04T10:54:13.342Z,253.12
2019-03-04T10:55:13.333Z,253.12
2019-03-04T10:56:13.341Z,275.62
2019-03-04T10:57:13.369Z,309.38
2019-03-04T10:58:13.313Z,264.38
2019-03-04T10:59:13.290Z,253.12
2019-03-04T11:00:13.300Z,253.12
2019-03-04T11:01:13.295Z,236.25
2019-03-04T11:02:13.276Z,253.12
2019-03-04T11:03:13.252Z,264.38
2019-03-04T11:04:13.243Z,320.62
2019-03-04T11:05:13.246Z,393.75
2019-03-04T11:06:13.216Z,433.12
2019-03-04T11:07:13.226Z,382.50
2019-03-04T11:08:13.205Z,337.50
2019-03-04T11:09:13.179Z,292.50
2019-03-04T11:10:13.173Z,270.00
2019-03-04T11:11:13.164Z,270.00
2019-03-04T11:12:14.164Z,309.38
2019-03-04T11:13:13.189Z,331.88
2019-03-04T11:14:13.170Z,376.88
2019-03-04T11:15:13.118Z,438.75
2019-03-04T11:16:13.119Z,478.12
2019-03-04T11:17:13.096Z,438.75
2019-03-04T11:18:13.095Z,365.62
2019-03-04T11:19:13.090Z,365.62
2019-03-04T11:20:13.067Z,416.25
2019-03-04T11:21:13.048Z,427.50
2019-03-04T11:22:13.038Z,528.75
2019-03-04T11:23:15.014Z,517.50
2019-03-04T11:24:13.045Z,472.50
2019-03-04T11:25:13.019Z,472.50
2019-03-04T11:26:12.995Z,556.88
2019-03-04T11:27:12.985Z,613.12
2019-03-04T11:28:12.995Z,461.25
2019-03-04T11:29:13.464Z,388.12
2019-03-04T11:30:12.966Z,382.50
2019-03-04T11:31:12.960Z,433.12
2019-03-04T11:32:12.974Z,365.62
2019-03-04T11:33:12.961Z,275.62
2019-03-04T11:34:12.917Z,208.12
2019-03-04T11:35:12.924Z,146.25
2019-03-04T11:36:12.890Z,101.25
2019-03-04T11:37:12.885Z,84.38
2019-03-04T11:38:12.872Z,67.50
2019-03-04T11:39:12.863Z,61.88
2019-03-04T11:40:12.879Z,50.62
2019-03-04T11:41:12.832Z,56.25
2019-03-04T11:42:12.842Z,101.25
2019-03-04T11:43:12.868Z,146.25
2019-03-04T11:44:13.129Z,253.12
2019-03-04T11:45:12.816Z,348.75
2019-03-04T11:46:12.801Z,450.00
2019-03-04T11:47:12.777Z,450.00
2019-03-04T11:48:12.765Z,264.38
2019-03-04T11:49:12.755Z,253.12
2019-03-04T11:50:12.743Z,185.62
2019-03-04T11:51:12.746Z,180.00
2019-03-04T11:52:12.734Z,163.12
2019-03-04T11:53:12.726Z,157.50
2019-03-04T11:54:12.761Z,185.62
2019-03-04T11:55:12.683Z,151.88
2019-03-04T11:56:12.695Z,118.12
2019-03-04T11:57:12.673Z,95.62
2019-03-04T11:58:12.649Z,73.12
2019-03-04T11:59:12.641Z,67.50
2019-03-04T12:00:12.635Z,50.62
2019-03-04T12:01:12.641Z,50.62
2019-03-04T12:02:12.642Z,61.88
2019-03-04T12:03:12.600Z,95.62
2019-03-04T12:04:12.589Z,146.25
2019-03-04T12:05:12.573Z,303.75
2019-03-04T12:06:12.567Z,213.75
2019-03-04T12:07:12.573Z,196.88
2019-03-04T12:08:12.545Z,303.75
2019-03-04T12:09:12.545Z,286.88
2019-03-04T12:10:12.536Z,247.50
2019-03-04T12:11:12.532Z,185.62
2019-03-04T12:12:12.501Z,135.00
2019-03-04T12:13:12.491Z,129.38
2019-03-04T12:14:12.515Z,135.00
2019-03-04T12:15:12.532Z,106.88
2019-03-04T12:16:12.458Z,90.00
2019-03-04T12:17:12.513Z,90.00
2019-03-04T12:18:12.436Z,95.62
2019-03-04T12:19:12.448Z,95.62
2019-03-04T12:20:12.449Z,90.00
2019-03-04T12:21:12.412Z,118.12
2019-03-04T12:22:12.420Z,151.88
2019-03-04T12:23:12.404Z,506.25
2019-03-04T12:24:12.376Z,1057.50
2019-03-04T12:25:12.372Z,1051.88
2019-03-04T12:26:12.348Z,1029.38
2019-03-04T12:27:12.340Z,1018.12
2019-03-04T12:28:12.356Z,978.75
2019-03-04T12:29:12.325Z,905.62
2019-03-04T12:30:12.303Z,826.88
2019-03-04T12:31:12.318Z,748.12
2019-03-04T12:32:12.290Z,669.38
2019-03-04T12:33:12.280Z,601.88
2019-03-04T12:34:12.287Z,528.75
2019-03-04T12:35:12.278Z,478.12
2019-03-04T12:36:12.288Z,438.75
2019-03-04T12:37:12.230Z,360.00
2019-03-04T12:38:12.241Z,360.00
2019-03-04T12:39:12.240Z,343.12
2019-03-04T12:40:12.201Z,444.38
2019-03-04T12:41:12.196Z,433.12
2019-03-04T12:42:12.188Z,393.75
2019-03-04T12:43:12.193Z,354.38
2019-03-04T12:44:12.161Z,388.12
2019-03-04T12:45:12.153Z,433.12
2019-03-04T12:46:12.141Z,461.25
2019-03-04T12:47:12.139Z,410.62
2019-03-04T12:48:12.132Z,450.00
2019-03-04T12:49:12.101Z,556.88
2019-03-04T12:50:12.090Z,669.38
2019-03-04T12:51:12.085Z,691.88
2019-03-04T12:52:12.075Z,545.62
2019-03-04T12:53:12.091Z,410.62
2019-03-04T12:54:12.083Z,585.00
2019-03-04T12:55:12.051Z,725.62